Terminal Aerodrome Forecast
Issued by NWS State College, PA

Home | Current Version | Previous Version | Text Only | Print | Product List | Glossary On
Versions: 1 2 3 4 5 6 7 8 9 10 11 12 13 14 15 16 17 18 19 20 21 22 23 24 25 26 27 28 29
000
FTUS41 KCTP 251135
TAFMDT
TAF
KMDT 251135Z 2512/2612 VRB03KT 6SM BR BKN080
     FM251300 27006KT 6SM HZ SCT040
     FM251800 26008G16KT P6SM VCSH BKN050
      TEMPO 2521/2524 3SM -TSRA OVC030CB
     FM260000 29007KT 6SM -SHRA BKN035 PROB30 2600/2604 2SM -TSRA
      OVC030CB
     FM260400 VRB03KT 4SM BR BKN100=

USA.gov is the U.S. government's official web portal to all federal, state and local government web resources and services.